Time;durP1;ratioP1;P1;durP2;ratioP2;P2;SDS_P1;SDS_P2;PMS_P1;PMS_P2;Temp;Humidity;BMP_temperature;BMP_pressure;BME280_temperature;BME280_humidity;BME280_pressure;Samples;Min_cycle;Max_cycle;Signal;HPM_P1;HPM_P2
2021/12/22 00:01:38;;;;;;;18.52;10.80;;;-1.80;99.90;;;;;;6245810;23;20047;-72
2021/12/22 00:04:03;;;;;;;;;;;-1.80;99.90;;;;;;6217848;23;20451;-72
2021/12/22 00:06:35;;;;;;;17.35;9.45;;;-1.80;99.90;;;;;;6245734;23;20298;-71
2021/12/22 00:09:03;;;;;;;18.38;10.48;;;-1.90;99.90;;;;;;6246169;23;20113;-72
2021/12/22 00:11:29;;;;;;;18.80;10.25;;;-1.90;99.90;;;;;;6244765;23;20444;-71
2021/12/22 00:14:03;;;;;;;;;;;-1.90;99.90;;;;;;6219341;23;20016;-72
2021/12/22 00:16:29;;;;;;;19.70;11.00;;;-0.90;99.90;;;;;;6218754;23;20010;-71
2021/12/22 00:18:55;;;;;;;;;;;-1.90;99.90;;;;;;6218391;23;20475;-72
2021/12/22 00:21:23;;;;;;;21.73;11.45;;;-1.90;99.90;;;;;;6218740;23;19969;-72
2021/12/22 00:23:52;;;;;;;18.98;10.80;;;-1.90;99.90;;;;;;6245638;23;20012;-72
2021/12/22 00:26:17;;;;;;;19.05;11.82;;;-1.90;99.90;;;;;;6245005;23;20020;-72
2021/12/22 00:28:47;;;;;;;;;;;-1.90;99.90;;;;;;6219084;23;20023;-72
2021/12/22 00:31:14;;;;;;;16.35;10.32;;;-0.60;99.90;;;;;;6245385;23;19915;-72
2021/12/22 00:33:50;;;;;;;18.85;11.10;;;-1.90;99.90;;;;;;6244902;23;20015;-72
2021/12/22 00:36:21;;;;;;;19.17;10.35;;;-2.00;99.90;;;;;;6218228;23;20047;-72
2021/12/22 00:38:47;;;;;;;20.42;11.05;;;-1.90;99.90;;;;;;6217901;23;20016;-72
2021/12/22 00:41:14;;;;;;;18.50;11.57;;;-1.90;99.90;;;;;;6218353;23;20012;-73
2021/12/22 00:43:40;;;;;;;17.02;11.10;;;-1.90;99.90;;;;;;6245263;23;20437;-72
2021/12/22 00:46:05;;;;;;;;;;;-1.90;99.90;;;;;;6218059;23;20024;-72
2021/12/22 00:48:31;;;;;;;19.13;10.57;;;-1.80;99.90;;;;;;6245767;23;19926;-72
2021/12/22 00:50:58;;;;;;;20.73;11.13;;;-1.80;99.90;;;;;;6245280;23;20111;-72
2021/12/22 00:53:24;;;;;;;28.80;13.65;;;-1.90;99.90;;;;;;6217508;23;20016;-72
2021/12/22 00:55:50;;;;;;;;;;;-1.90;99.90;;;;;;6218679;23;20031;-72
2021/12/22 00:58:16;;;;;;;21.55;12.68;;;-1.80;99.90;;;;;;6218192;23;19915;-72
2021/12/22 01:00:42;;;;;;;17.70;11.32;;;-1.80;99.90;;;;;;6244420;23;20016;-72
2021/12/22 01:03:08;;;;;;;;;;;-1.90;99.90;;;;;;6218989;23;20020;-72
2021/12/22 01:05:36;;;;;;;21.65;11.23;;;-1.90;99.90;;;;;;6218055;23;19915;-72
2021/12/22 01:08:02;;;;;;;21.77;12.18;;;-2.00;99.90;;;;;;6244540;23;20340;-72
2021/12/22 01:10:29;;;;;;;;;;;-1.90;99.90;;;;;;6218354;23;20402;-72
2021/12/22 01:12:59;;;;;;;;;;;-1.90;99.90;;;;;;6245700;23;20248;-72
2021/12/22 01:15:25;;;;;;;;;;;-1.90;99.90;;;;;;6217784;23;20298;-72
2021/12/22 01:17:58;;;;;;;;;;;-1.90;99.90;;;;;;6218500;23;20271;-73
2021/12/22 01:20:30;;;;;;;;;;;-1.90;99.90;;;;;;6218347;23;19915;-73
2021/12/22 01:23:02;;;;;;;;;;;-1.90;99.90;;;;;;6218252;23;19915;-73
2021/12/22 01:25:29;;;;;;;;;;;-1.90;99.90;;;;;;6245031;23;19915;-73
2021/12/22 01:27:55;;;;;;;;;;;-1.90;99.90;;;;;;6214143;23;19920;-73
2021/12/22 01:30:26;;;;;;;;;;;-1.90;99.90;;;;;;6245475;23;20007;-73
2021/12/22 01:32:55;;;;;;;;;;;-2.00;99.90;;;;;;6218486;23;19915;-73
2021/12/22 01:35:22;;;;;;;;;;;-2.00;99.90;;;;;;6217580;23;19923;-73
2021/12/22 01:37:50;;;;;;;;;;;-2.00;99.90;;;;;;6218738;23;19955;-73
2021/12/22 01:40:16;;;;;;;;;;;-2.00;99.90;;;;;;6218473;23;19916;-73
2021/12/22 01:42:42;;;;;;;;;;;-2.00;99.90;;;;;;6218183;23;19993;-73
2021/12/22 01:50:42;;;;;;;;;;;-2.00;99.90;;;;;;6245325;23;19915;-73
2021/12/22 01:53:23;;;;;;;;;;;-2.00;99.90;;;;;;6245721;23;20244;-73
2021/12/22 01:56:01;;;;;;;;;;;-2.00;99.90;;;;;;6217581;23;19922;-72
2021/12/22 01:58:38;;;;;;;;;;;-2.00;99.90;;;;;;6218775;23;19922;-72
2021/12/22 02:01:04;;;;;;;;;;;-2.10;99.90;;;;;;6245467;23;19955;-72
2021/12/22 02:03:30;;;;;;;;;;;-2.10;99.90;;;;;;6217558;23;19916;-72
2021/12/22 02:05:55;;;;;;;;;;;-2.20;99.90;;;;;;6244564;23;19915;-72
2021/12/22 02:08:24;;;;;;;;;;;-2.20;99.90;;;;;;6245494;23;19915;-72
2021/12/22 02:10:50;;;;;;;;;;;-2.40;99.90;;;;;;6217583;23;19920;-72
2021/12/22 02:13:28;;;;;;;;;;;-2.30;99.90;;;;;;6217993;23;19969;-72
2021/12/22 02:15:54;;;;;;;;;;;-2.30;99.90;;;;;;6245240;23;19986;-72
2021/12/22 02:18:21;;;;;;;;;;;-2.30;99.90;;;;;;6217214;23;20272;-72
2021/12/22 02:20:47;;;;;;;;;;;-2.30;99.90;;;;;;6218341;23;19915;-72
2021/12/22 02:23:13;;;;;;;;;;;-2.30;99.90;;;;;;6218324;23;20388;-72
2021/12/22 02:25:49;;;;;;;;;;;-2.30;99.90;;;;;;6216972;23;19955;-72
2021/12/22 02:28:23;;;;;;;;;;;-2.40;99.90;;;;;;6217778;23;19915;-72
2021/12/22 02:30:51;;;;;;;;;;;-1.30;99.90;;;;;;6244844;23;20323;-72
2021/12/22 02:38:43;;;;;;;;;;;-2.50;99.90;;;;;;6217523;23;19915;-72
2021/12/22 02:41:11;;;;;;;;;;;-2.50;99.90;;;;;;6217993;23;19957;-72
2021/12/22 02:43:44;;;;;;;;;;;-2.50;99.90;;;;;;6217772;23;19915;-72
2021/12/22 02:46:11;;;;;;;;;;;-2.50;99.90;;;;;;6244353;23;19994;-73
2021/12/22 02:48:37;;;;;;;;;;;-2.50;99.90;;;;;;6243845;23;19919;-72
2021/12/22 02:51:05;;;;;;;;;;;-2.50;99.90;;;;;;6218627;23;20228;-72
2021/12/22 02:53:41;;;;;;;;;;;-2.50;99.90;;;;;;6243913;23;20002;-72
2021/12/22 02:56:24;;;;;;;;;;;-2.50;99.90;;;;;;6218555;23;19915;-72
2021/12/22 02:59:02;;;;;;;;;;;-2.50;99.90;;;;;;6247233;23;20049;-73
2021/12/22 03:04:18;;;;;;;;;;;-2.30;99.90;;;;;;6219621;23;20236;-73
2021/12/22 03:06:52;;;;;;;;;;;-2.30;99.90;;;;;;6219135;23;19994;-73
2021/12/22 03:09:18;;;;;;;;;;;-2.30;99.90;;;;;;6246579;23;20377;-72
2021/12/22 03:11:47;;;;;;;;;;;-2.30;99.90;;;;;;6219735;23;19942;-72
2021/12/22 03:14:13;;;;;;;;;;;-2.50;99.90;;;;;;6246261;23;19998;-73
2021/12/22 03:16:42;;;;;;;;;;;-2.40;99.90;;;;;;6246801;23;19915;-73
2021/12/22 03:19:09;;;;;;;;;;;-2.50;99.90;;;;;;6219873;23;20282;-73
2021/12/22 03:21:34;;;;;;;;;;;-2.50;99.90;;;;;;6218975;23;19922;-73
2021/12/22 03:24:00;;;;;;;;;;;-2.60;99.90;;;;;;6219799;23;19991;-73
2021/12/22 03:26:26;;;;;;;;;;;-2.60;99.90;;;;;;6218894;23;20312;-73
2021/12/22 03:28:51;;;;;;;;;;;-2.60;99.90;;;;;;6245588;23;19915;-73
2021/12/22 03:31:17;;;;;;;;;;;-2.60;99.90;;;;;;6219471;23;19915;-73
2021/12/22 03:33:43;;;;;;;;;;;-2.60;99.90;;;;;;6219760;23;19986;-73
2021/12/22 03:36:09;;;;;;;;;;;-2.60;99.90;;;;;;6218803;23;19941;-73
2021/12/22 03:38:35;;;;;;;;;;;-2.50;99.90;;;;;;6245975;23;19927;-73
2021/12/22 03:41:01;;;;;;;;;;;-2.50;99.90;;;;;;6219440;23;20268;-72
2021/12/22 03:43:27;;;;;;;;;;;-2.60;99.90;;;;;;6218373;23;19958;-73
2021/12/22 03:45:52;;;;;;;;;;;-2.60;99.90;;;;;;6247040;23;19922;-72
2021/12/22 03:48:18;;;;;;;;;;;-2.60;99.90;;;;;;6218386;23;20316;-73
2021/12/22 03:50:44;;;;;;;;;;;-2.60;99.90;;;;;;6219442;23;19927;-73
2021/12/22 03:53:10;;;;;;;;;;;-2.60;99.90;;;;;;6219302;23;19911;-72
2021/12/22 03:55:36;;;;;;;;;;;-2.60;99.90;;;;;;6218394;23;19916;-73
2021/12/22 03:58:01;;;;;;;;;;;-2.60;99.90;;;;;;6246719;23;19915;-73
2021/12/22 04:00:27;;;;;;;;;;;-2.60;99.90;;;;;;6245701;23;19911;-73
2021/12/22 04:02:56;;;;;;;;;;;-2.70;99.90;;;;;;6218797;23;20347;-72
2021/12/22 04:05:22;;;;;;;;;;;-2.60;99.90;;;;;;6218197;23;19923;-73
2021/12/22 04:07:47;;;;;;;;;;;-2.50;99.90;;;;;;6219145;23;19915;-73
2021/12/22 04:10:23;;;;;;;;;;;-2.70;99.90;;;;;;6245570;23;19939;-73
2021/12/22 04:12:55;;;;;;;;;;;-2.70;99.90;;;;;;6219680;23;19951;-73
2021/12/22 04:15:23;;;;;;;;;;;-2.70;99.90;;;;;;6218584;23;19916;-73
2021/12/22 04:17:48;;;;;;;;;;;-2.60;99.90;;;;;;6246043;23;19934;-72
2021/12/22 04:20:14;;;;;;;;;;;-2.60;99.90;;;;;;6245558;23;20323;-72
2021/12/22 04:22:39;;;;;;;;;;;-2.60;99.90;;;;;;6219218;23;20278;-73
2021/12/22 04:25:07;;;;;;;;;;;-3.20;99.90;;;;;;6218308;23;19915;-73
2021/12/22 04:27:33;;;;;;;;;;;-2.50;99.90;;;;;;6245503;23;19923;-73
2021/12/22 04:29:59;;;;;;;;;;;-2.50;99.90;;;;;;6245948;23;19915;-72
2021/12/22 04:32:24;;;;;;;;;;;-2.40;99.90;;;;;;6245238;23;19911;-73
2021/12/22 04:34:50;;;;;;;;;;;-2.40;99.90;;;;;;6217244;23;19942;-73
2021/12/22 04:37:16;;;;;;;;;;;-2.30;99.90;;;;;;6245589;23;20331;-73
2021/12/22 04:39:41;;;;;;;;;;;-2.30;99.90;;;;;;6245872;23;19922;-73
2021/12/22 04:42:07;;;;;;;;;;;-2.20;99.90;;;;;;6218664;23;20386;-73
2021/12/22 04:44:35;;;;;;;;;;;-2.30;99.90;;;;;;6217682;23;19942;-73
2021/12/22 04:47:01;;;;;;;;;;;-2.40;99.90;;;;;;6218089;23;19923;-71
2021/12/22 04:49:26;;;;;;;;;;;-2.40;99.90;;;;;;6218888;23;19998;-73
2021/12/22 04:51:54;;;;;;;;;;;-2.30;99.90;;;;;;6217945;23;19915;-72
2021/12/22 04:56:55;;;;;;;;;;;-2.30;99.90;;;;;;6218256;23;19916;-73
2021/12/22 04:59:21;;;;;;;;;;;-2.30;99.90;;;;;;6216807;23;19949;-72
2021/12/22 05:01:46;;;;;;;;;;;-2.40;99.90;;;;;;6218445;23;19953;-72
2021/12/22 05:04:12;;;;;;;;;;;-2.40;99.90;;;;;;6244094;23;20330;-72
2021/12/22 05:06:37;;;;;;;;;;;-2.40;99.90;;;;;;6215541;23;19938;-72
2021/12/22 05:09:04;;;;;;;;;;;-2.40;99.90;;;;;;6244725;23;19998;-73
2021/12/22 05:11:29;;;;;;;;;;;-2.40;99.90;;;;;;6217280;23;20341;-73
2021/12/22 05:13:55;;;;;;;;;;;-2.50;99.90;;;;;;6218429;23;19939;-73
2021/12/22 05:16:20;;;;;;;;;;;-2.50;99.90;;;;;;6245040;23;19927;-73
2021/12/22 05:18:58;;;;;;;;;;;-2.50;99.90;;;;;;6218993;23;20684;-73
2021/12/22 05:21:27;;;;;;;;;;;-2.50;99.90;;;;;;6217307;23;19919;-73
2021/12/22 05:23:53;;;;;;;;;;;-2.50;99.90;;;;;;6244910;23;19938;-74
2021/12/22 05:26:19;;;;;;;;;;;-2.40;99.90;;;;;;6244964;23;19916;-73
2021/12/22 05:28:45;;;;;;;;;;;-2.50;99.90;;;;;;6245257;23;19969;-73
2021/12/22 05:31:10;;;;;;;;;;;-2.60;99.90;;;;;;6217977;23;20246;-73
2021/12/22 05:33:36;;;;;;;;;;;-2.50;99.90;;;;;;6218666;23;19923;-72
2021/12/22 05:36:01;;;;;;;;;;;-2.50;99.90;;;;;;6244585;23;19950;-73
2021/12/22 05:38:27;;;;;;;;;;;-2.50;99.90;;;;;;6245244;23;20228;-73
2021/12/22 05:40:52;;;;;;;;;;;-2.50;99.90;;;;;;6245366;23;19943;-72
2021/12/22 05:43:21;;;;;;;;;;;-1.80;99.90;;;;;;6218232;23;19959;-72
2021/12/22 05:45:46;;;;;;;;;;;-2.00;99.90;;;;;;6218443;23;19915;-72
2021/12/22 05:48:15;;;;;;;;;;;-2.50;99.90;;;;;;6244584;23;19922;-73
2021/12/22 05:50:45;;;;;;;;;;;-2.50;99.90;;;;;;6245089;23;20383;-72
2021/12/22 05:53:11;;;;;;;;;;;-2.50;99.90;;;;;;6218048;23;19990;-71
2021/12/22 05:55:36;;;;;;;;;;;-2.50;99.90;;;;;;6217782;23;19943;-71
2021/12/22 05:58:02;;;;;;;;;;;-2.60;99.90;;;;;;6245189;23;19916;-72
2021/12/22 06:00:27;;;;;;;;;;;-2.60;99.90;;;;;;6218344;23;19916;-72
2021/12/22 06:02:56;;;;;;;;;;;-2.60;99.90;;;;;;6217679;23;19919;-72
2021/12/22 06:05:25;;;;;;;;;;;-2.60;99.90;;;;;;6217642;23;19916;-71
2021/12/22 06:07:50;;;;;;;;;;;-2.60;99.90;;;;;;6217419;23;19990;-71
2021/12/22 06:10:16;;;;;;;;;;;-2.60;99.90;;;;;;6217705;23;19993;-72
2021/12/22 06:12:41;;;;;;;;;;;-2.60;99.90;;;;;;6218394;23;20371;-72
2021/12/22 06:15:07;;;;;;;;;;;-2.60;99.90;;;;;;6245288;23;19915;-72
2021/12/22 06:17:33;;;;;;;;;;;-2.70;99.90;;;;;;6244565;23;19915;-72
2021/12/22 06:19:58;;;;;;;;;;;-2.70;99.90;;;;;;6245334;23;19986;-72
2021/12/22 06:22:25;;;;;;;;;;;-2.70;99.90;;;;;;6244397;23;20386;-72
2021/12/22 06:24:50;;;;;;;;;;;-2.70;99.90;;;;;;6217430;23;19990;-72
2021/12/22 06:27:16;;;;;;;;;;;-2.60;99.90;;;;;;6245043;23;19946;-72
2021/12/22 06:29:41;;;;;;;;;;;-2.70;99.90;;;;;;6218463;23;19939;-72
2021/12/22 06:32:07;;;;;;;;;;;-2.70;99.90;;;;;;6217160;23;19915;-72
2021/12/22 06:34:33;;;;;;;;;;;-2.70;99.90;;;;;;6245027;23;20013;-73
2021/12/22 06:36:58;;;;;;;;;;;-2.70;99.90;;;;;;6217776;23;19990;-73
2021/12/22 06:39:24;;;;;;;;;;;-2.70;99.90;;;;;;6216891;23;20367;-73
2021/12/22 06:41:49;;;;;;;;;;;-2.70;99.90;;;;;;6218043;23;19919;-72
2021/12/22 06:44:15;;;;;;;;;;;-2.70;99.90;;;;;;6217519;23;19915;-72
2021/12/22 06:46:44;;;;;;;;;;;-2.60;99.90;;;;;;6218312;23;19916;-73
2021/12/22 06:49:10;;;;;;;;;;;-2.60;99.90;;;;;;6217647;23;19965;-72
2021/12/22 06:51:36;;;;;;;;;;;-2.60;99.90;;;;;;6244663;23;19915;-72
2021/12/22 06:54:02;;;;;;;;;;;-2.60;99.90;;;;;;6217427;23;19916;-73
2021/12/22 06:56:28;;;;;;;;;;;-2.60;99.90;;;;;;6216390;23;20277;-73
2021/12/22 06:58:54;;;;;;;;;;;-2.60;99.90;;;;;;6243814;23;19999;-73
2021/12/22 07:01:21;;;;;;;;;;;-2.60;99.90;;;;;;6217179;23;20254;-73
2021/12/22 07:03:46;;;;;;;;;;;-2.60;99.90;;;;;;6217366;23;19920;-72
2021/12/22 07:06:12;;;;;;;;;;;-2.70;99.90;;;;;;6215812;23;19938;-72
2021/12/22 07:08:38;;;;;;;;;;;-2.70;99.90;;;;;;6244705;23;19915;-73
2021/12/22 07:11:04;;;;;;;;;;;-2.80;99.90;;;;;;6217153;23;19969;-73
2021/12/22 07:13:30;;;;;;;;;;;-2.70;99.90;;;;;;6244397;23;19920;-72
2021/12/22 07:15:55;;;;;;;;;;;-2.70;99.90;;;;;;6244709;23;19915;-72
2021/12/22 07:18:21;;;;;;;;;;;-2.80;99.90;;;;;;6217230;23;19923;-72
2021/12/22 07:20:46;;;;;;;;;;;-2.80;99.90;;;;;;6217344;23;19919;-72
2021/12/22 07:23:12;;;;;;;;;;;-2.80;99.90;;;;;;6243740;23;19919;-73
2021/12/22 07:25:40;;;;;;;;;;;-2.70;99.90;;;;;;6217838;23;20255;-73
2021/12/22 07:28:10;;;;;;;;;;;-2.80;99.90;;;;;;6244438;23;19970;-73
2021/12/22 07:30:38;;;;;;;;;;;-2.80;99.90;;;;;;6217206;23;19923;-73
2021/12/22 07:33:05;;;;;;;;;;;-2.80;99.90;;;;;;6217416;23;19916;-72
2021/12/22 07:35:53;;;;;;;;;;;-2.80;99.90;;;;;;6215822;23;20348;-75
2021/12/22 07:38:27;;;;;;;;;;;-2.80;99.90;;;;;;6212585;23;19942;-73
2021/12/22 07:40:53;;;;;;;;;;;-2.70;99.90;;;;;;6216784;23;19923;-78
2021/12/22 07:43:18;;;;;;;;;;;-2.80;99.90;;;;;;6218368;23;19915;-76
2021/12/22 07:45:44;;;;;;;;;;;-2.80;99.90;;;;;;6218633;23;19916;-79
2021/12/22 07:48:10;;;;;;;;;;;-2.80;99.90;;;;;;6218564;23;19916;-77
2021/12/22 07:50:35;;;;;;;;;;;-2.80;99.90;;;;;;6219163;23;19911;-74
2021/12/22 07:53:01;;;;;;;;;;;-2.80;99.90;;;;;;6219249;23;19970;-76
2021/12/22 07:55:26;;;;;;;;;;;-2.80;99.90;;;;;;6218111;23;19947;-74
2021/12/22 07:57:52;;;;;;;;;;;-2.80;99.90;;;;;;6218915;23;20339;-72
2021/12/22 08:00:17;;;;;;;;;;;-2.80;99.90;;;;;;6211950;23;19919;-73
2021/12/22 08:02:43;;;;;;;;;;;-2.80;99.90;;;;;;6217860;23;19930;-74
2021/12/22 08:05:09;;;;;;;;;;;-2.70;99.90;;;;;;6244560;23;19919;-73
2021/12/22 08:07:35;;;;;;;;;;;-2.70;99.90;;;;;;6218513;23;19915;-73
2021/12/22 08:10:05;;;;;;;;;;;-2.60;99.90;;;;;;6219018;23;19965;-72
2021/12/22 08:12:30;;;;;;;;;;;-2.70;99.90;;;;;;6245161;23;19919;-74
2021/12/22 08:14:56;;;;;;;;;;;-2.70;99.90;;;;;;6219146;23;20209;-73
2021/12/22 08:17:47;;;;;;;;;;;-2.70;99.90;;;;;;6217517;22;19915;-73
2021/12/22 08:20:13;;;;;;;;;;;-2.60;99.90;;;;;;6187082;23;20328;-74
2021/12/22 08:22:38;;;;;;;;;;;-2.20;99.90;;;;;;6186792;23;19987;-76
2021/12/22 08:25:13;;;;;;;;;;;-2.50;99.90;;;;;;6199061;22;19933;-72
2021/12/22 08:27:45;;;;;;;;;;;-2.50;99.90;;;;;;6212313;23;19947;-72
2021/12/22 08:30:11;;;;;;;;;;;-1.00;99.90;;;;;;6215514;23;20316;-71
2021/12/22 08:32:36;;;;;;;;;;;-2.30;99.90;;;;;;6218185;23;19965;-71
2021/12/22 08:35:04;;;;;;;;;;;-2.20;99.90;;;;;;6219037;23;19927;-71
2021/12/22 08:40:17;;;;;;;;;;;-2.10;99.90;;;;;;6245069;23;19915;-72
2021/12/22 08:42:43;;;;;;;;;;;-1.90;99.90;;;;;;6218061;23;19954;-72
2021/12/22 08:45:09;;;;;;;;;;;-2.00;99.90;;;;;;6218021;23;19919;-72
2021/12/22 08:47:37;;;;;;;;;;;-2.00;99.90;;;;;;6218393;23;19919;-72
2021/12/22 08:50:03;;;;;;;;;;;-2.00;99.90;;;;;;6245625;23;19922;-73
2021/12/22 08:52:29;;;;;;;;;;;-2.00;99.90;;;;;;6217381;23;20343;-72
2021/12/22 08:54:54;;;;;;;;;;;-1.90;99.90;;;;;;6217941;23;19916;-71
2021/12/22 08:57:20;;;;;;;;;;;-1.90;99.90;;;;;;6216755;23;19922;-73
2021/12/22 08:59:49;;;;;;;;;;;-1.80;99.90;;;;;;6239297;23;20249;-73
2021/12/22 09:02:15;;;;;;;;;;;-1.00;99.90;;;;;;6218096;23;19947;-73
2021/12/22 09:04:41;;;;;;;;;;;-1.30;99.90;;;;;;6217900;23;19927;-73
2021/12/22 09:07:09;;;;;;;;;;;-0.90;99.90;;;;;;6217795;23;19990;-73
2021/12/22 09:09:38;;;;;;;;;;;0.10;99.90;;;;;;6215221;23;20365;-73
2021/12/22 09:12:05;;;;;;;;;;;-0.40;99.90;;;;;;6217004;23;19976;-73
2021/12/22 09:14:31;;;;;;;;;;;-0.20;99.90;;;;;;6217362;23;19915;-73
2021/12/22 09:16:56;;;;;;;;;;;0.10;99.90;;;;;;6218561;23;20204;-74
2021/12/22 09:19:23;;;;;;;;;;;0.80;99.90;;;;;;6216361;23;20098;-76
2021/12/22 09:21:48;;;;;;;;;;;1.50;99.90;;;;;;6217824;23;19919;-75
2021/12/22 09:24:14;;;;;;;;;;;1.70;99.90;;;;;;6215448;23;20002;-77
2021/12/22 09:26:40;;;;;;;;;;;1.70;99.90;;;;;;6216571;23;19915;-77
2021/12/22 09:50:09;;;;;;;;;;;2.40;99.90;;;;;;6217500;23;19916;-75
2021/12/22 09:52:36;;;;;;;;;;;2.60;99.90;;;;;;6217826;23;20290;-76
2021/12/22 09:55:02;;;;;;;;;;;2.70;99.90;;;;;;6216702;23;19955;-78
2021/12/22 09:57:30;;;;;;;;;;;3.20;99.90;;;;;;6217021;23;19947;-75
2021/12/22 10:00:02;;;;;;;;;;;2.70;99.90;;;;;;6218501;23;19916;-73
2021/12/22 10:02:29;;;;;;;;;;;2.50;99.90;;;;;;6217177;23;20387;-73
2021/12/22 10:04:56;;;;;;;;;;;2.10;99.90;;;;;;6217836;23;19916;-75
2021/12/22 10:07:50;;;;;;;;;;;1.90;99.90;;;;;;6218354;22;19969;-74
2021/12/22 10:10:27;;;;;;;;;;;1.80;99.90;;;;;;6216296;23;19952;-74
2021/12/22 10:13:18;;;;;;;;;;;0.90;99.90;;;;;;6217491;23;19941;-74
2021/12/22 10:15:57;;;;;;;;;;;1.60;99.90;;;;;;6216411;23;20357;-76
2021/12/22 10:18:50;;;;;;;;;;;1.30;99.90;;;;;;6216484;23;19916;-77
2021/12/22 10:21:26;;;;;;;;;;;1.20;99.90;;;;;;6217665;23;19974;-78
2021/12/22 10:24:08;;;;;;;;;;;1.70;99.90;;;;;;6217291;23;19922;-75
2021/12/22 10:27:03;;;;;;;;;;;1.90;99.90;;;;;;6143405;23;19916;-77
2021/12/22 10:29:32;;;;;;;;;;;1.60;99.90;;;;;;6215814;23;19922;-76
2021/12/22 10:32:05;;;;;;;;;;;1.80;99.90;;;;;;6217581;23;19911;-77
2021/12/22 10:34:30;;;;;;;;;;;1.90;99.90;;;;;;6216836;23;19915;-75
2021/12/22 10:36:56;;;;;;;;;;;1.90;99.90;;;;;;6217031;23;20245;-76
2021/12/22 10:39:25;;;;;;;;;;;1.80;99.90;;;;;;6217129;23;19915;-75
2021/12/22 10:41:51;;;;;;;;;;;1.80;99.90;;;;;;6216362;23;19927;-75
2021/12/22 10:44:17;;;;;;;;;;;1.80;99.90;;;;;;6215711;23;19923;-75
2021/12/22 10:46:43;;;;;;;;;;;1.60;99.90;;;;;;6216808;23;19920;-74
2021/12/22 10:49:19;;;;;;;;;;;1.70;99.90;;;;;;6244325;23;19926;-76
2021/12/22 10:51:54;;;;;;;;;;;2.00;99.90;;;;;;6216249;23;19947;-72
2021/12/22 10:54:19;;;;;;;;;;;2.30;99.90;;;;;;6215878;23;19916;-75
2021/12/22 10:56:46;;;;;;;;;;;2.60;99.90;;;;;;6216334;23;19922;-75
2021/12/22 10:59:14;;;;;;;;;;;2.50;99.90;;;;;;6215372;23;19919;-75
2021/12/22 11:01:49;;;;;;;;;;;2.50;99.90;;;;;;6217146;23;19919;-75
2021/12/22 11:04:18;;;;;;;;;;;2.70;99.90;;;;;;6216390;23;20243;-76
2021/12/22 11:06:44;;;;;;;;;;;2.60;99.90;;;;;;6216803;23;19923;-79
2021/12/22 11:09:15;;;;;;;;;;;2.60;99.90;;;;;;6243396;23;19998;-79
2021/12/22 11:11:48;;;;;;;;;;;2.50;99.90;;;;;;6216206;23;20642;-79
2021/12/22 11:14:22;;;;;;;;;;;2.20;99.90;;;;;;6216975;23;19920;-77
2021/12/22 11:16:50;;;;;;;;;;;2.50;99.90;;;;;;6216473;23;20243;-78
2021/12/22 11:19:15;;;;;;;;;;;2.50;99.90;;;;;;6217987;23;19915;-79
2021/12/22 11:21:52;;;;;;;;;;;2.70;99.90;;;;;;6219475;23;19922;-79
2021/12/22 11:24:18;;;;;;;;;;;3.00;99.90;;;;;;6218655;23;19915;-77
2021/12/22 11:26:44;;;;;;;;;;;3.30;99.90;;;;;;6245844;23;20318;-77
2021/12/22 11:29:11;;;;;;;;;;;3.70;99.90;;;;;;6218682;23;19990;-75
2021/12/22 11:31:37;;;;;;;;;;;4.10;99.90;;;;;;6219236;23;19915;-76
2021/12/22 11:34:02;;;;;;;;;;;3.80;99.90;;;;;;6245838;23;19961;-76
2021/12/22 11:36:28;;;;;;;;;;;3.70;99.90;;;;;;6219470;23;19919;-78
2021/12/22 11:38:54;;;;;;;;;;;3.50;99.90;;;;;;6219555;23;19919;-80
2021/12/22 11:41:20;;;;;;;;;;;3.30;99.90;;;;;;6217223;23;20276;-77
2021/12/22 11:43:46;;;;;;;;;;;3.50;99.90;;;;;;6215699;23;19997;-78
2021/12/22 11:46:12;;;;;;;;;;;4.00;99.90;;;;;;6244314;23;19923;-78
2021/12/22 11:48:38;;;;;;;;;;;4.30;99.90;;;;;;6217271;23;19919;-77
2021/12/22 11:51:24;;;;;;;;;;;4.30;99.90;;;;;;6218673;23;19920;-76
2021/12/22 11:54:04;;;;;;;;;;;4.40;99.90;;;;;;6216607;23;19958;-78
2021/12/22 11:56:41;;;;;;;;;;;5.20;99.90;;;;;;6215676;23;19919;-76
2021/12/22 11:59:23;;;;;;;;;;;5.60;99.90;;;;;;6245961;23;19939;-77
2021/12/22 12:02:08;;;;;;;;;;;5.20;99.90;;;;;;6218923;23;19915;-80
2021/12/22 12:04:34;;;;;;;;;;;4.70;99.90;;;;;;6218083;23;19923;-79
2021/12/22 12:07:00;;;;;;;;;;;5.00;99.90;;;;;;6218767;23;19922;-78
2021/12/22 12:09:29;;;;;;;;;;;4.30;99.90;;;;;;6217187;23;20030;-77
2021/12/22 12:11:58;;;;;;;;;;;4.10;99.90;;;;;;6218200;23;19916;-83
2021/12/22 12:23:16;;;;;;;;;;;4.60;99.90;;;;;;6242616;23;19915;-83
2021/12/22 12:25:41;;;;;;;;;;;3.70;99.90;;;;;;6217166;23;19981;-83
2021/12/22 12:28:16;;;;;;;;;;;3.30;99.90;;;;;;6246121;23;20347;-82
2021/12/22 12:30:46;;;;;;;;;;;2.90;99.90;;;;;;6217470;23;19916;-82
2021/12/22 12:33:32;;;;;;;;;;;2.80;99.90;;;;;;6218987;23;19920;-81
2021/12/22 12:41:31;;;;;;;;;;;2.50;99.90;;;;;;6257035;22;19966;-78
2021/12/22 12:44:10;;;;;;;;;;;2.10;99.90;;;;;;6243122;23;19919;-77
2021/12/22 12:46:43;;;;;;;;;;;1.80;99.90;;;;;;6216446;23;20563;-77
2021/12/22 12:49:24;;;;;;;;;;;1.90;99.90;;;;;;6216507;23;19961;-77
2021/12/22 12:51:50;;;;;;;;;;;2.00;99.90;;;;;;6213795;23;19969;-77
2021/12/22 12:58:11;;;;;;;;;;;3.20;99.90;;;;;;6244588;23;19925;-74
2021/12/22 13:04:43;;;;;;;;;;;3.60;99.90;;;;;;6245033;23;19911;-80
2021/12/22 13:10:55;;;;;;;;;;;3.00;99.90;;;;;;6218414;23;19969;-75
2021/12/22 13:20:46;;;;;;;;;;;1.50;99.90;;;;;;6245313;23;19911;-81
2021/12/22 13:23:26;;;;;;;;;;;-0.20;99.90;;;;;;6216883;23;19946;-77
2021/12/22 13:25:58;;;;;;;;;;;1.90;99.90;;;;;;6217200;23;19994;-77
2021/12/22 13:28:31;;;;;;;;;;;0.80;99.90;;;;;;6217519;23;19915;-77
2021/12/22 13:31:29;;;;;;;;;;;1.80;99.90;;;;;;6216980;23;20801;-77
2021/12/22 13:40:11;;;;;;;;;;;1.20;99.90;;;;;;6243224;23;19919;-79
2021/12/22 13:46:11;;;;;;;;;;;1.10;99.90;;;;;;6244613;23;19995;-77
2021/12/22 13:49:00;;;;;;;;;;;0.90;99.90;;;;;;6216745;23;20328;-79
2021/12/22 13:51:40;;;;;;;;;;;1.10;99.90;;;;;;6217740;23;19938;-79
2021/12/22 13:54:20;;;;;;;;;;;0.90;99.90;;;;;;6217003;23;19947;-79
2021/12/22 13:56:50;;;;;;;;;;;0.70;99.90;;;;;;6217741;23;19919;-80
2021/12/22 14:19:49;;;;;;;;;;;1.20;99.90;;;;;;6217153;23;19965;-74
2021/12/22 14:25:37;;;;;;;;;;;-0.80;99.90;;;;;;6244275;23;19957;-74
2021/12/22 14:35:11;;;;;;;;;;;-0.80;99.90;;;;;;6095019;23;20004;-74
2021/12/22 14:40:26;;;;;;;;;;;-0.50;99.90;;;;;;6244920;22;19919;-73
2021/12/22 14:42:58;;;;;;;;;;;-0.80;99.90;;;;;;6214322;23;20410;-73
2021/12/22 14:45:27;;;;;;;;;;;-0.50;99.90;;;;;;6213761;23;19923;-76
2021/12/22 14:48:14;;;;;;;;;;;-0.60;99.90;;;;;;6209372;23;20332;-72
2021/12/22 14:50:42;;;;;;;;;;;-0.70;99.90;;;;;;6212293;23;19922;-74
2021/12/22 14:53:10;;;;;;;;;;;-0.60;99.90;;;;;;6214960;23;19923;-75
2021/12/22 14:55:40;;;;;;;;;;;-0.70;99.90;;;;;;6217734;23;19999;-74
2021/12/22 14:58:05;;;;;;;;;;;-0.70;99.90;;;;;;6219966;23;20354;-73
2021/12/22 15:00:31;;;;;;;;;;;-0.70;99.90;;;;;;6247330;23;19920;-73
2021/12/22 15:02:56;;;;;;;;;;;-0.80;99.90;;;;;;6220538;23;19915;-77
2021/12/22 15:05:22;;;;;;;;;;;-0.80;99.90;;;;;;6219256;23;19922;-79
2021/12/22 15:07:47;;;;;;;;;;;-0.80;99.90;;;;;;6220823;23;20223;-77
2021/12/22 15:10:13;;;;;;;;;;;-0.80;99.90;;;;;;6247321;23;19916;-74
2021/12/22 15:12:41;;;;;;;;;;;-0.90;99.90;;;;;;6218559;23;19937;-75
2021/12/22 15:15:07;;;;;;;;;;;-0.90;99.90;;;;;;6219787;23;19923;-74
2021/12/22 15:17:32;;;;;;;;;;;-1.00;99.90;;;;;;6214912;23;20327;-74
2021/12/22 15:19:58;;;;;;;;;;;-0.90;99.90;;;;;;6247355;23;19919;-73
2021/12/22 15:22:24;;;;;;;;;;;-1.00;99.90;;;;;;6219230;23;20308;-74
2021/12/22 15:24:52;;;;;;;;;;;-1.10;99.90;;;;;;6214215;23;19979;-74
2021/12/22 15:27:17;;;;;;;;;;;-1.00;99.90;;;;;;6217272;23;20331;-75
2021/12/22 15:29:43;;;;;;;;;;;-1.00;99.90;;;;;;6246567;23;20307;-74
2021/12/22 15:32:08;;;;;;;;;;;-0.90;99.90;;;;;;6245767;23;19941;-74
2021/12/22 15:34:34;;;;;;;;;;;-0.90;99.90;;;;;;6218966;23;19982;-73
2021/12/22 15:37:00;;;;;;;;;;;-0.90;99.90;;;;;;6246775;23;19939;-73
2021/12/22 15:39:26;;;;;;;;;;;-0.90;99.90;;;;;;6244660;23;19919;-74
2021/12/22 15:41:51;;;;;;;;;;;-0.90;99.90;;;;;;6246360;23;19962;-75
2021/12/22 15:44:19;;;;;;;;;;;-0.90;99.90;;;;;;6218961;23;19986;-75
2021/12/22 15:46:45;;;;;;;;;;;-0.90;99.90;;;;;;6218531;23;19973;-73
2021/12/22 15:49:11;;;;;;;;;;;-1.00;99.90;;;;;;6245663;23;19919;-74
2021/12/22 15:51:36;;;;;;;;;;;-1.00;99.90;;;;;;6219223;23;20235;-74
2021/12/22 15:54:02;;;;;;;;;;;-1.00;99.90;;;;;;6218428;23;20235;-75
2021/12/22 15:56:28;;;;;;;;;;;-0.90;99.90;;;;;;6218213;23;19916;-80
2021/12/22 15:58:53;;;;;;;;;;;-1.10;99.90;;;;;;6219508;23;19962;-82
2021/12/22 16:01:19;;;;;;;;;;;-1.10;99.90;;;;;;6244741;23;19942;-79
2021/12/22 16:03:48;;;;;;;;;;;-1.00;99.90;;;;;;6246649;23;19946;-79
2021/12/22 16:06:16;;;;;;;;;;;-1.00;99.90;;;;;;6245749;23;19922;-78
2021/12/22 16:08:42;;;;;;;;;;;-1.10;99.90;;;;;;6218689;23;20328;-76
2021/12/22 16:11:07;;;;;;;;;;;-1.10;99.90;;;;;;6218585;23;19911;-77
2021/12/22 16:13:33;;;;;;;;;;;-1.10;99.90;;;;;;6217854;23;19915;-76
2021/12/22 16:16:00;;;;;;;;;;;-1.10;99.90;;;;;;6218117;23;19965;-77
2021/12/22 16:18:29;;;;;;;;;;;-1.10;99.90;;;;;;6218729;23;19947;-78